sensor_id;sensor_type;location;lat;lon;timestamp;pressure;altitude;pressure_sealevel;temperature;humidity
59877;BME280;45749;51.140;17.184;2023-03-15T00:00:09;99146.75;;;2.48;93.01
59877;BME280;45749;51.140;17.184;2023-03-15T00:02:35;99146.66;;;2.50;93.34
59877;BME280;45749;51.140;17.184;2023-03-15T00:05:01;99158.84;;;2.49;93.18
59877;BME280;45749;51.140;17.184;2023-03-15T00:07:27;99155.41;;;2.49;92.92
59877;BME280;45749;51.140;17.184;2023-03-15T00:09:53;99151.13;;;2.48;93.09
59877;BME280;45749;51.140;17.184;2023-03-15T00:12:19;99164.88;;;2.50;93.02
59877;BME280;45749;51.140;17.184;2023-03-15T00:14:47;99174.38;;;2.51;92.92
59877;BME280;45749;51.140;17.184;2023-03-15T00:17:13;99175.22;;;2.51;93.28
59877;BME280;45749;51.140;17.184;2023-03-15T00:19:38;99170.84;;;2.52;93.20
59877;BME280;45749;51.140;17.184;2023-03-15T00:22:03;99177.81;;;2.51;93.22
59877;BME280;45749;51.140;17.184;2023-03-15T00:24:29;99192.50;;;2.52;92.96
59877;BME280;45749;51.140;17.184;2023-03-15T00:26:54;99187.31;;;2.52;92.81
59877;BME280;45749;51.140;17.184;2023-03-15T00:29:20;99202.84;;;2.54;92.80
59877;BME280;45749;51.140;17.184;2023-03-15T00:31:45;99208.91;;;2.54;92.61
59877;BME280;45749;51.140;17.184;2023-03-15T00:34:10;99211.56;;;2.53;92.77
59877;BME280;45749;51.140;17.184;2023-03-15T00:36:38;99217.72;;;2.52;92.83
59877;BME280;45749;51.140;17.184;2023-03-15T00:39:03;99230.84;;;2.50;92.61
59877;BME280;45749;51.140;17.184;2023-03-15T00:41:29;99235.28;;;2.48;92.52
59877;BME280;45749;51.140;17.184;2023-03-15T00:43:56;99246.53;;;2.49;92.41
59877;BME280;45749;51.140;17.184;2023-03-15T00:46:21;99257.78;;;2.49;92.46
59877;BME280;45749;51.140;17.184;2023-03-15T00:48:48;99253.50;;;2.48;92.32
59877;BME280;45749;51.140;17.184;2023-03-15T00:51:19;99248.31;;;2.48;92.38
59877;BME280;45749;51.140;17.184;2023-03-15T00:53:46;99268.31;;;2.48;92.23
59877;BME280;45749;51.140;17.184;2023-03-15T00:56:17;99273.50;;;2.48;92.46
59877;BME280;45749;51.140;17.184;2023-03-15T00:58:44;99277.13;;;2.45;92.21
59877;BME280;45749;51.140;17.184;2023-03-15T01:01:24;99267.53;;;2.46;92.10
59877;BME280;45749;51.140;17.184;2023-03-15T01:03:49;99261.50;;;2.45;92.22
59877;BME280;45749;51.140;17.184;2023-03-15T01:06:18;99274.50;;;2.45;91.96
59877;BME280;45749;51.140;17.184;2023-03-15T01:08:44;99271.91;;;2.45;92.06
59877;BME280;45749;51.140;17.184;2023-03-15T01:11:12;99270.25;;;2.44;92.31
59877;BME280;45749;51.140;17.184;2023-03-15T01:13:38;99272.09;;;2.42;92.04
59877;BME280;45749;51.140;17.184;2023-03-15T01:16:05;99270.41;;;2.41;91.81
59877;BME280;45749;51.140;17.184;2023-03-15T01:18:31;99269.47;;;2.42;92.39
59877;BME280;45749;51.140;17.184;2023-03-15T01:20:57;99278.13;;;2.43;91.99
59877;BME280;45749;51.140;17.184;2023-03-15T01:23:23;99284.16;;;2.43;91.82
59877;BME280;45749;51.140;17.184;2023-03-15T01:25:49;99285.94;;;2.43;91.76
59877;BME280;45749;51.140;17.184;2023-03-15T01:28:14;99284.25;;;2.42;91.52
59877;BME280;45749;51.140;17.184;2023-03-15T01:30:48;99287.69;;;2.42;91.50
59877;BME280;45749;51.140;17.184;2023-03-15T01:33:13;99290.41;;;2.41;91.57
59877;BME280;45749;51.140;17.184;2023-03-15T01:35:39;99306.03;;;2.41;91.35
59877;BME280;45749;51.140;17.184;2023-03-15T01:38:04;99306.19;;;2.38;91.33
59877;BME280;45749;51.140;17.184;2023-03-15T01:40:30;99310.56;;;2.37;91.54
59877;BME280;45749;51.140;17.184;2023-03-15T01:48:14;99315.84;;;2.35;91.04
59877;BME280;45749;51.140;17.184;2023-03-15T01:50:40;99320.22;;;2.35;91.10
59877;BME280;45749;51.140;17.184;2023-03-15T01:53:06;99326.34;;;2.34;91.19
59877;BME280;45749;51.140;17.184;2023-03-15T01:55:32;99335.91;;;2.33;90.98
59877;BME280;45749;51.140;17.184;2023-03-15T01:57:59;99344.66;;;2.32;91.17
59877;BME280;45749;51.140;17.184;2023-03-15T02:00:26;99353.38;;;2.31;90.90
59877;BME280;45749;51.140;17.184;2023-03-15T02:02:58;99358.66;;;2.30;90.79
59877;BME280;45749;51.140;17.184;2023-03-15T02:05:28;99356.16;;;2.28;90.90
59877;BME280;45749;51.140;17.184;2023-03-15T02:07:56;99357.09;;;2.27;90.88
59877;BME280;45749;51.140;17.184;2023-03-15T02:10:26;99361.44;;;2.27;90.78
59877;BME280;45749;51.140;17.184;2023-03-15T02:12:55;99354.66;;;2.24;90.45
59877;BME280;45749;51.140;17.184;2023-03-15T02:15:22;99353.09;;;2.20;90.35
59877;BME280;45749;51.140;17.184;2023-03-15T02:17:48;99367.06;;;2.19;90.30
59877;BME280;45749;51.140;17.184;2023-03-15T02:22:59;99381.84;;;2.19;90.38
59877;BME280;45749;51.140;17.184;2023-03-15T02:28:05;99381.16;;;2.15;90.37
59877;BME280;45749;51.140;17.184;2023-03-15T02:30:32;99376.13;;;2.12;90.37
59877;BME280;45749;51.140;17.184;2023-03-15T02:33:00;99376.13;;;2.12;90.35
59877;BME280;45749;51.140;17.184;2023-03-15T02:35:29;99389.13;;;2.12;90.64
59877;BME280;45749;51.140;17.184;2023-03-15T02:37:56;99393.50;;;2.11;90.02
59877;BME280;45749;51.140;17.184;2023-03-15T02:40:25;99400.47;;;2.11;90.30
59877;BME280;45749;51.140;17.184;2023-03-15T02:42:55;99404.91;;;2.09;90.27
59877;BME280;45749;51.140;17.184;2023-03-15T02:45:22;99398.94;;;2.07;90.16
59877;BME280;45749;51.140;17.184;2023-03-15T02:47:50;99407.66;;;2.06;89.94
59877;BME280;45749;51.140;17.184;2023-03-15T02:50:16;99410.53;;;2.01;90.08
59877;BME280;45749;51.140;17.184;2023-03-15T02:52:41;99415.72;;;2.01;90.29
59877;BME280;45749;51.140;17.184;2023-03-15T02:55:07;99414.88;;;2.01;90.25
59877;BME280;45749;51.140;17.184;2023-03-15T02:57:32;99414.19;;;1.97;90.15
59877;BME280;45749;51.140;17.184;2023-03-15T02:59:58;99428.94;;;1.97;90.25
59877;BME280;45749;51.140;17.184;2023-03-15T03:02:24;99437.69;;;1.96;90.29
59877;BME280;45749;51.140;17.184;2023-03-15T03:04:50;99436.00;;;1.95;89.74
59877;BME280;45749;51.140;17.184;2023-03-15T03:07:17;99443.03;;;1.93;89.98
59877;BME280;45749;51.140;17.184;2023-03-15T03:09:43;99440.44;;;1.93;89.90
59877;BME280;45749;51.140;17.184;2023-03-15T03:12:09;99442.28;;;1.91;89.96
59877;BME280;45749;51.140;17.184;2023-03-15T03:14:34;99451.94;;;1.88;90.02
59877;BME280;45749;51.140;17.184;2023-03-15T03:16:59;99449.34;;;1.88;89.90
59877;BME280;45749;51.140;17.184;2023-03-15T03:19:25;99452.00;;;1.87;89.77
59877;BME280;45749;51.140;17.184;2023-03-15T03:21:52;99446.78;;;1.87;89.57
59877;BME280;45749;51.140;17.184;2023-03-15T03:24:18;99468.44;;;1.87;89.46
59877;BME280;45749;51.140;17.184;2023-03-15T03:26:44;99472.06;;;1.85;89.43
59877;BME280;45749;51.140;17.184;2023-03-15T03:29:13;99465.09;;;1.85;89.72
59877;BME280;45749;51.140;17.184;2023-03-15T03:31:43;99468.63;;;1.84;89.59
59877;BME280;45749;51.140;17.184;2023-03-15T03:34:09;99476.44;;;1.84;89.64
59877;BME280;45749;51.140;17.184;2023-03-15T03:36:36;99473.88;;;1.83;89.44
59877;BME280;45749;51.140;17.184;2023-03-15T03:39:01;99485.13;;;1.83;89.73
59877;BME280;45749;51.140;17.184;2023-03-15T03:41:27;99479.94;;;1.83;89.39
59877;BME280;45749;51.140;17.184;2023-03-15T03:43:53;99487.72;;;1.83;89.52
59877;BME280;45749;51.140;17.184;2023-03-15T03:46:19;99492.94;;;1.83;89.35
59877;BME280;45749;51.140;17.184;2023-03-15T03:48:45;99491.50;;;1.78;89.53
59877;BME280;45749;51.140;17.184;2023-03-15T03:51:10;99496.75;;;1.76;89.52
59877;BME280;45749;51.140;17.184;2023-03-15T03:53:35;99488.19;;;1.74;89.43
59877;BME280;45749;51.140;17.184;2023-03-15T03:56:04;99486.50;;;1.73;89.65
59877;BME280;45749;51.140;17.184;2023-03-15T03:58:30;99489.94;;;1.74;89.33
59877;BME280;45749;51.140;17.184;2023-03-15T04:00:55;99482.25;;;1.72;89.55
59877;BME280;45749;51.140;17.184;2023-03-15T04:03:21;99492.63;;;1.72;89.72
59877;BME280;45749;51.140;17.184;2023-03-15T04:05:57;99498.81;;;1.70;89.47
59877;BME280;45749;51.140;17.184;2023-03-15T04:08:24;99505.78;;;1.69;89.79
59877;BME280;45749;51.140;17.184;2023-03-15T04:10:54;99503.25;;;1.68;89.43
59877;BME280;45749;51.140;17.184;2023-03-15T04:13:20;99505.00;;;1.67;89.61
59877;BME280;45749;51.140;17.184;2023-03-15T04:15:47;99498.19;;;1.64;89.37
59877;BME280;45749;51.140;17.184;2023-03-15T04:18:13;99505.16;;;1.64;89.67
59877;BME280;45749;51.140;17.184;2023-03-15T04:20:39;99506.94;;;1.63;89.48
59877;BME280;45749;51.140;17.184;2023-03-15T04:23:16;99507.00;;;1.62;89.67
59877;BME280;45749;51.140;17.184;2023-03-15T04:25:48;99499.97;;;1.64;89.34
59877;BME280;45749;51.140;17.184;2023-03-15T04:28:14;99514.72;;;1.63;89.21
59877;BME280;45749;51.140;17.184;2023-03-15T04:30:39;99513.97;;;1.61;89.21
59877;BME280;45749;51.140;17.184;2023-03-15T04:33:08;99526.34;;;1.56;89.42
59877;BME280;45749;51.140;17.184;2023-03-15T04:35:35;99536.06;;;1.53;89.60
59877;BME280;45749;51.140;17.184;2023-03-15T04:38:01;99530.09;;;1.51;89.33
59877;BME280;45749;51.140;17.184;2023-03-15T04:40:29;99542.19;;;1.52;89.69
59877;BME280;45749;51.140;17.184;2023-03-15T04:42:55;99550.03;;;1.50;89.59
59877;BME280;45749;51.140;17.184;2023-03-15T04:45:22;99558.69;;;1.51;89.66
59877;BME280;45749;51.140;17.184;2023-03-15T04:47:48;99555.34;;;1.49;89.57
59877;BME280;45749;51.140;17.184;2023-03-15T04:50:15;99564.03;;;1.48;89.45
59877;BME280;45749;51.140;17.184;2023-03-15T04:52:40;99560.59;;;1.47;89.53
59877;BME280;45749;51.140;17.184;2023-03-15T04:55:06;99564.16;;;1.45;89.77
59877;BME280;45749;51.140;17.184;2023-03-15T04:57:32;99564.09;;;1.46;89.45
59877;BME280;45749;51.140;17.184;2023-03-15T04:59:57;99576.13;;;1.49;89.91
59877;BME280;45749;51.140;17.184;2023-03-15T05:02:22;99577.94;;;1.47;89.52
59877;BME280;45749;51.140;17.184;2023-03-15T05:04:48;99587.44;;;1.48;89.63
59877;BME280;45749;51.140;17.184;2023-03-15T05:07:13;99588.28;;;1.48;89.71
59877;BME280;45749;51.140;17.184;2023-03-15T05:09:39;99593.56;;;1.47;89.50
59877;BME280;45749;51.140;17.184;2023-03-15T05:12:05;99597.97;;;1.45;89.35
59877;BME280;45749;51.140;17.184;2023-03-15T05:14:31;99586.88;;;1.41;89.21
59877;BME280;45749;51.140;17.184;2023-03-15T05:16:57;99593.13;;;1.37;89.09
59877;BME280;45749;51.140;17.184;2023-03-15T05:19:27;99596.56;;;1.37;89.50
59877;BME280;45749;51.140;17.184;2023-03-15T05:21:52;99596.56;;;1.37;89.34
59877;BME280;45749;51.140;17.184;2023-03-15T05:24:19;99605.22;;;1.38;89.46
59877;BME280;45749;51.140;17.184;2023-03-15T05:26:45;99612.94;;;1.39;89.40
59877;BME280;45749;51.140;17.184;2023-03-15T05:29:11;99606.13;;;1.37;89.26
59877;BME280;45749;51.140;17.184;2023-03-15T05:31:37;99613.94;;;1.37;89.23
59877;BME280;45749;51.140;17.184;2023-03-15T05:34:03;99624.41;;;1.35;89.06
59877;BME280;45749;51.140;17.184;2023-03-15T05:36:33;99621.03;;;1.33;89.23
59877;BME280;45749;51.140;17.184;2023-03-15T05:38:59;99629.66;;;1.34;89.23
59877;BME280;45749;51.140;17.184;2023-03-15T05:41:27;99644.44;;;1.33;89.00
59877;BME280;45749;51.140;17.184;2023-03-15T05:43:52;99638.38;;;1.33;88.97
59877;BME280;45749;51.140;17.184;2023-03-15T05:46:18;99645.25;;;1.34;88.90
59877;BME280;45749;51.140;17.184;2023-03-15T05:48:43;99651.31;;;1.34;89.05
59877;BME280;45749;51.140;17.184;2023-03-15T05:51:09;99653.84;;;1.36;89.32
59877;BME280;45749;51.140;17.184;2023-03-15T05:53:34;99659.88;;;1.36;89.19
59877;BME280;45749;51.140;17.184;2023-03-15T05:56:00;99661.56;;;1.37;88.75
59877;BME280;45749;51.140;17.184;2023-03-15T05:58:26;99656.38;;;1.37;88.84
59877;BME280;45749;51.140;17.184;2023-03-15T06:00:51;99672.75;;;1.39;88.79
59877;BME280;45749;51.140;17.184;2023-03-15T06:03:16;99670.19;;;1.38;88.37
59877;BME280;45749;51.140;17.184;2023-03-15T06:05:42;99677.16;;;1.37;88.87
59877;BME280;45749;51.140;17.184;2023-03-15T06:08:08;99684.13;;;1.37;88.66
59877;BME280;45749;51.140;17.184;2023-03-15T06:10:33;99698.78;;;1.38;88.69
59877;BME280;45749;51.140;17.184;2023-03-15T06:12:58;99694.53;;;1.37;88.38
59877;BME280;45749;51.140;17.184;2023-03-15T06:15:24;99693.69;;;1.36;88.38
59877;BME280;45749;51.140;17.184;2023-03-15T06:17:50;99690.25;;;1.36;88.57
59877;BME280;45749;51.140;17.184;2023-03-15T06:20:15;99694.53;;;1.37;88.60
59877;BME280;45749;51.140;17.184;2023-03-15T06:22:41;99704.00;;;1.38;88.75
59877;BME280;45749;51.140;17.184;2023-03-15T06:25:08;99710.97;;;1.37;88.56
59877;BME280;45749;51.140;17.184;2023-03-15T06:27:35;99708.34;;;1.37;88.52
59877;BME280;45749;51.140;17.184;2023-03-15T06:30:03;99705.00;;;1.35;88.62
59877;BME280;45749;51.140;17.184;2023-03-15T06:32:29;99713.56;;;1.37;88.54
59877;BME280;45749;51.140;17.184;2023-03-15T06:34:55;99718.72;;;1.39;88.85
59877;BME280;45749;51.140;17.184;2023-03-15T06:37:21;99722.97;;;1.40;88.40
59877;BME280;45749;51.140;17.184;2023-03-15T06:39:46;99720.34;;;1.42;88.73
59877;BME280;45749;51.140;17.184;2023-03-15T06:42:12;99714.13;;;1.44;88.66
59877;BME280;45749;51.140;17.184;2023-03-15T06:44:38;99722.72;;;1.46;88.37
59877;BME280;45749;51.140;17.184;2023-03-15T06:47:05;99722.56;;;1.49;88.87
59877;BME280;45749;51.140;17.184;2023-03-15T06:49:30;99729.31;;;1.53;88.69
59877;BME280;45749;51.140;17.184;2023-03-15T06:51:56;99720.47;;;1.57;88.70
59877;BME280;45749;51.140;17.184;2023-03-15T06:54:22;99735.78;;;1.63;88.76
59877;BME280;45749;51.140;17.184;2023-03-15T06:56:48;99739.03;;;1.69;88.60
59877;BME280;45749;51.140;17.184;2023-03-15T06:59:13;99741.50;;;1.72;88.70
59877;BME280;45749;51.140;17.184;2023-03-15T07:01:39;99762.03;;;1.78;88.57
59877;BME280;45749;51.140;17.184;2023-03-15T07:04:04;99749.66;;;1.83;88.38
59877;BME280;45749;51.140;17.184;2023-03-15T07:06:30;99758.16;;;1.86;87.99
59877;BME280;45749;51.140;17.184;2023-03-15T07:08:55;99761.47;;;1.90;88.16
59877;BME280;45749;51.140;17.184;2023-03-15T07:11:21;99763.03;;;1.94;88.03
59877;BME280;45749;51.140;17.184;2023-03-15T07:13:46;99771.53;;;1.98;88.00
59877;BME280;45749;51.140;17.184;2023-03-15T07:16:11;99773.13;;;2.00;87.88
59877;BME280;45749;51.140;17.184;2023-03-15T07:18:37;99775.59;;;2.03;87.74
59877;BME280;45749;51.140;17.184;2023-03-15T07:21:03;99771.22;;;2.04;87.27
59877;BME280;45749;51.140;17.184;2023-03-15T07:23:30;99778.16;;;2.05;87.18
59877;BME280;45749;51.140;17.184;2023-03-15T07:25:56;99781.50;;;2.07;87.21
59877;BME280;45749;51.140;17.184;2023-03-15T07:28:23;99793.63;;;2.08;86.91
59877;BME280;45749;51.140;17.184;2023-03-15T07:30:54;99788.34;;;2.09;86.78
59877;BME280;45749;51.140;17.184;2023-03-15T07:33:20;99794.38;;;2.10;86.65
59877;BME280;45749;51.140;17.184;2023-03-15T07:35:48;99802.03;;;2.13;87.00
59877;BME280;45749;51.140;17.184;2023-03-15T07:38:13;99799.38;;;2.15;87.30
59877;BME280;45749;51.140;17.184;2023-03-15T07:40:39;99810.34;;;2.21;86.93
59877;BME280;45749;51.140;17.184;2023-03-15T07:43:04;99817.09;;;2.25;87.25
59877;BME280;45749;51.140;17.184;2023-03-15T07:45:30;99822.09;;;2.30;86.48
59877;BME280;45749;51.140;17.184;2023-03-15T07:47:56;99817.56;;;2.33;86.64
59877;BME280;45749;51.140;17.184;2023-03-15T07:50:21;99816.53;;;2.38;86.65
59877;BME280;45749;51.140;17.184;2023-03-15T07:52:47;99813.78;;;2.41;87.32
59877;BME280;45749;51.140;17.184;2023-03-15T07:55:13;99816.09;;;2.47;86.73
59877;BME280;45749;51.140;17.184;2023-03-15T07:57:38;99817.56;;;2.52;86.55
59877;BME280;45749;51.140;17.184;2023-03-15T08:00:04;99817.28;;;2.58;86.21
59877;BME280;45749;51.140;17.184;2023-03-15T08:02:30;99820.56;;;2.62;86.11
59877;BME280;45749;51.140;17.184;2023-03-15T08:04:55;99823.88;;;2.66;86.41
59877;BME280;45749;51.140;17.184;2023-03-15T08:07:21;99828.94;;;2.69;86.49
59877;BME280;45749;51.140;17.184;2023-03-15T08:09:46;99826.81;;;2.77;86.95
59877;BME280;45749;51.140;17.184;2023-03-15T08:12:12;99831.66;;;2.85;86.42
59877;BME280;45749;51.140;17.184;2023-03-15T08:14:38;99838.34;;;2.90;85.98
59877;BME280;45749;51.140;17.184;2023-03-15T08:20:25;99846.47;;;3.01;85.55
59877;BME280;45749;51.140;17.184;2023-03-15T08:22:50;99847.94;;;3.07;85.62
59877;BME280;45749;51.140;17.184;2023-03-15T08:25:18;99846.03;;;3.11;85.11
59877;BME280;45749;51.140;17.184;2023-03-15T08:27:44;99852.69;;;3.16;84.73
59877;BME280;45749;51.140;17.184;2023-03-15T08:30:12;99854.28;;;3.19;83.88
59877;BME280;45749;51.140;17.184;2023-03-15T08:32:38;99855.84;;;3.23;84.63
59877;BME280;45749;51.140;17.184;2023-03-15T08:35:05;99857.38;;;3.27;84.05
59877;BME280;45749;51.140;17.184;2023-03-15T08:37:31;99855.47;;;3.31;83.46
59877;BME280;45749;51.140;17.184;2023-03-15T08:39:57;99861.50;;;3.31;83.22
59877;BME280;45749;51.140;17.184;2023-03-15T08:42:28;99865.09;;;3.28;82.39
59877;BME280;45749;51.140;17.184;2023-03-15T08:44:53;99880.53;;;3.33;82.51
59877;BME280;45749;51.140;17.184;2023-03-15T08:47:23;99877.84;;;3.35;82.84
59877;BME280;45749;51.140;17.184;2023-03-15T08:49:49;99882.91;;;3.38;82.68
59877;BME280;45749;51.140;17.184;2023-03-15T08:52:20;99887.00;;;3.43;82.91
59877;BME280;45749;51.140;17.184;2023-03-15T08:54:46;99891.06;;;3.49;82.69
59877;BME280;45749;51.140;17.184;2023-03-15T08:57:12;99901.16;;;3.55;83.03
59877;BME280;45749;51.140;17.184;2023-03-15T08:59:38;99899.19;;;3.60;81.93
59877;BME280;45749;51.140;17.184;2023-03-15T09:02:04;99900.00;;;3.61;81.79
59877;BME280;45749;51.140;17.184;2023-03-15T09:04:30;99904.94;;;3.67;82.26
59877;BME280;45749;51.140;17.184;2023-03-15T09:06:56;99905.56;;;3.72;82.64
59877;BME280;45749;51.140;17.184;2023-03-15T09:09:21;99906.16;;;3.77;82.28
59877;BME280;45749;51.140;17.184;2023-03-15T09:11:47;99905.91;;;3.82;81.87
59877;BME280;45749;51.140;17.184;2023-03-15T09:14:13;99897.91;;;3.85;81.70
59877;BME280;45749;51.140;17.184;2023-03-15T09:16:38;99902.13;;;3.87;81.54
59877;BME280;45749;51.140;17.184;2023-03-15T09:19:04;99902.06;;;3.89;80.93
59877;BME280;45749;51.140;17.184;2023-03-15T09:21:29;99905.28;;;3.94;82.39
59877;BME280;45749;51.140;17.184;2023-03-15T09:23:55;99908.41;;;4.00;81.57
59877;BME280;45749;51.140;17.184;2023-03-15T09:26:21;99912.31;;;4.09;82.24
59877;BME280;45749;51.140;17.184;2023-03-15T09:28:47;99913.69;;;4.16;80.52
59877;BME280;45749;51.140;17.184;2023-03-15T09:31:12;99915.28;;;4.19;80.27
59877;BME280;45749;51.140;17.184;2023-03-15T09:33:38;99914.19;;;4.23;79.37
59877;BME280;45749;51.140;17.184;2023-03-15T09:36:03;99911.25;;;4.29;80.63
59877;BME280;45749;51.140;17.184;2023-03-15T09:38:30;99912.72;;;4.35;80.06
59877;BME280;45749;51.140;17.184;2023-03-15T09:40:59;99901.94;;;4.41;79.52
59877;BME280;45749;51.140;17.184;2023-03-15T09:48:38;99909.22;;;4.67;80.59
59877;BME280;45749;51.140;17.184;2023-03-15T09:51:09;99911.38;;;4.75;80.49
59877;BME280;45749;51.140;17.184;2023-03-15T09:53:44;99919.72;;;4.82;78.62
59877;BME280;45749;51.140;17.184;2023-03-15T09:56:26;99913.72;;;4.80;76.78
59877;BME280;45749;51.140;17.184;2023-03-15T09:58:57;99910.28;;;4.79;77.56
59877;BME280;45749;51.140;17.184;2023-03-15T10:01:29;99905.00;;;4.81;78.63
59877;BME280;45749;51.140;17.184;2023-03-15T10:03:55;99906.16;;;4.91;79.25
59877;BME280;45749;51.140;17.184;2023-03-15T10:06:31;99912.91;;;4.95;78.62
59877;BME280;45749;51.140;17.184;2023-03-15T10:09:03;99907.50;;;4.98;78.52
59877;BME280;45749;51.140;17.184;2023-03-15T10:11:52;99917.78;;;5.01;76.60
59877;BME280;45749;51.140;17.184;2023-03-15T10:14:34;99918.72;;;5.00;76.32
59877;BME280;45749;51.140;17.184;2023-03-15T10:17:14;99921.34;;;5.00;76.23
59877;BME280;45749;51.140;17.184;2023-03-15T10:19:51;99921.34;;;5.00;76.30
59877;BME280;45749;51.140;17.184;2023-03-15T10:22:31;99908.16;;;5.02;75.71
59877;BME280;45749;51.140;17.184;2023-03-15T10:27:40;99903.44;;;5.08;75.89
59877;BME280;45749;51.140;17.184;2023-03-15T10:30:17;99912.88;;;5.11;76.30
59877;BME280;45749;51.140;17.184;2023-03-15T10:32:51;99905.88;;;5.11;75.10
59877;BME280;45749;51.140;17.184;2023-03-15T10:35:19;99905.78;;;5.13;74.51
59877;BME280;45749;51.140;17.184;2023-03-15T10:37:45;99908.97;;;5.18;74.39
59877;BME280;45749;51.140;17.184;2023-03-15T10:40:13;99904.41;;;5.22;74.47
59877;BME280;45749;51.140;17.184;2023-03-15T10:42:41;99914.53;;;5.28;75.25
59877;BME280;45749;51.140;17.184;2023-03-15T10:45:25;99905.41;;;5.35;73.78
59877;BME280;45749;51.140;17.184;2023-03-15T10:47:53;99908.59;;;5.40;75.43
59877;BME280;45749;51.140;17.184;2023-03-15T10:50:32;99917.78;;;5.47;73.88
59877;BME280;45749;51.140;17.184;2023-03-15T10:53:00;99920.97;;;5.52;73.22
59877;BME280;45749;51.140;17.184;2023-03-15T10:55:43;99921.91;;;5.51;70.85
59877;BME280;45749;51.140;17.184;2023-03-15T10:58:27;99911.44;;;5.51;72.46
59877;BME280;45749;51.140;17.184;2023-03-15T11:01:04;99918.16;;;5.55;71.71
59877;BME280;45749;51.140;17.184;2023-03-15T11:03:32;99911.75;;;5.61;71.28
59877;BME280;45749;51.140;17.184;2023-03-15T11:05:58;99919.41;;;5.64;70.84
59877;BME280;45749;51.140;17.184;2023-03-15T11:08:40;99923.72;;;5.65;70.76
59877;BME280;45749;51.140;17.184;2023-03-15T11:11:07;99928.09;;;5.64;68.71
59877;BME280;45749;51.140;17.184;2023-03-15T11:13:34;99922.88;;;5.64;69.83
59877;BME280;45749;51.140;17.184;2023-03-15T11:16:07;99923.53;;;5.68;70.71
59877;BME280;45749;51.140;17.184;2023-03-15T11:18:45;99915.31;;;5.74;71.15
59877;BME280;45749;51.140;17.184;2023-03-15T11:21:13;99914.13;;;5.80;71.63
59877;BME280;45749;51.140;17.184;2023-03-15T11:23:41;99921.63;;;5.86;70.85
59877;BME280;45749;51.140;17.184;2023-03-15T11:26:14;99913.47;;;5.91;70.75
59877;BME280;45749;51.140;17.184;2023-03-15T11:28:46;99909.06;;;5.91;70.92
59877;BME280;45749;51.140;17.184;2023-03-15T11:31:13;99913.97;;;5.97;69.64
59877;BME280;45749;51.140;17.184;2023-03-15T11:33:41;99916.78;;;6.08;71.39
59877;BME280;45749;51.140;17.184;2023-03-15T11:36:12;99923.38;;;6.16;69.73
59877;BME280;45749;51.140;17.184;2023-03-15T11:38:41;99923.25;;;6.17;69.21
59877;BME280;45749;51.140;17.184;2023-03-15T11:47:31;99921.38;;;6.33;69.43
59877;BME280;45749;51.140;17.184;2023-03-15T11:49:43;99910.06;;;6.33;67.25
59877;BME280;45749;51.140;17.184;2023-03-15T11:52:10;99925.03;;;6.31;67.47
59877;BME280;45749;51.140;17.184;2023-03-15T11:54:36;99925.97;;;6.30;64.54
59877;BME280;45749;51.140;17.184;2023-03-15T11:57:20;99918.19;;;6.28;67.93
59877;BME280;45749;51.140;17.184;2023-03-15T11:59:51;99926.91;;;6.29;68.43
59877;BME280;45749;51.140;17.184;2023-03-15T12:04:44;99920.91;;;6.27;68.43
59877;BME280;45749;51.140;17.184;2023-03-15T12:22:37;99912.25;;;6.82;69.45
59877;BME280;45749;51.140;17.184;2023-03-15T12:25:16;99920.63;;;6.87;69.72
59877;BME280;45749;51.140;17.184;2023-03-15T12:27:49;99914.38;;;6.90;69.35
59877;BME280;45749;51.140;17.184;2023-03-15T12:30:38;99912.50;;;6.92;68.84
59877;BME280;45749;51.140;17.184;2023-03-15T12:33:12;99916.03;;;6.91;67.92
59877;BME280;45749;51.140;17.184;2023-03-15T12:35:40;99911.66;;;6.91;67.40
59877;BME280;45749;51.140;17.184;2023-03-15T12:38:15;99905.16;;;6.97;66.83
59877;BME280;45749;51.140;17.184;2023-03-15T12:40:55;99914.44;;;7.02;67.36
59877;BME280;45749;51.140;17.184;2023-03-15T12:43:41;99911.59;;;7.05;66.34
59877;BME280;45749;51.140;17.184;2023-03-15T12:49:29;99920.69;;;7.00;66.85
59877;BME280;45749;51.140;17.184;2023-03-15T12:54:59;99920.31;;;7.06;66.84
59877;BME280;45749;51.140;17.184;2023-03-15T12:57:45;99929.53;;;6.99;64.48
59877;BME280;45749;51.140;17.184;2023-03-15T13:00:13;99929.06;;;6.92;63.77
59877;BME280;45749;51.140;17.184;2023-03-15T13:07:52;99937.19;;;6.75;64.91
59877;BME280;45749;51.140;17.184;2023-03-15T13:15:39;99944.09;;;6.76;65.35
59877;BME280;45749;51.140;17.184;2023-03-15T13:18:18;99957.09;;;6.77;65.58
59877;BME280;45749;51.140;17.184;2023-03-15T13:21:08;99951.78;;;6.79;65.26
59877;BME280;45749;51.140;17.184;2023-03-15T13:23:37;99957.00;;;6.79;64.10
59877;BME280;45749;51.140;17.184;2023-03-15T13:31:20;99962.81;;;6.70;64.16
59877;BME280;45749;51.140;17.184;2023-03-15T13:33:51;99957.78;;;6.67;63.69
59877;BME280;45749;51.140;17.184;2023-03-15T13:37:14;99962.28;;;6.65;64.57
59877;BME280;45749;51.140;17.184;2023-03-15T13:39:25;99969.28;;;6.64;64.36
59877;BME280;45749;51.140;17.184;2023-03-15T13:41:57;99972.97;;;6.62;62.80
59877;BME280;45749;51.140;17.184;2023-03-15T13:44:24;99975.78;;;6.58;64.17
59877;BME280;45749;51.140;17.184;2023-03-15T13:46:51;99971.44;;;6.57;64.23
59877;BME280;45749;51.140;17.184;2023-03-15T13:49:18;99971.25;;;6.61;64.14
59877;BME280;45749;51.140;17.184;2023-03-15T13:51:46;99971.19;;;6.62;64.62
59877;BME280;45749;51.140;17.184;2023-03-15T13:56:59;99972.78;;;6.65;64.17
59877;BME280;45749;51.140;17.184;2023-03-15T13:59:34;99974.81;;;6.60;62.90
59877;BME280;45749;51.140;17.184;2023-03-15T14:02:03;99983.81;;;6.55;62.79
59877;BME280;45749;51.140;17.184;2023-03-15T14:04:34;99979.50;;;6.54;62.92
59877;BME280;45749;51.140;17.184;2023-03-15T14:07:25;99992.59;;;6.54;64.03
59877;BME280;45749;51.140;17.184;2023-03-15T14:12:55;99990.38;;;6.48;63.18
59877;BME280;45749;51.140;17.184;2023-03-15T14:20:27;100005.44;;;6.73;63.18
59877;BME280;45749;51.140;17.184;2023-03-15T14:22:58;99998.13;;;6.78;64.41